CPM weather

Public forecast

Using degrees Fahrenheit for public forecast. Weather courtesy of forecast.io.

Closest aviation weather report (METAR) to Compton Woodley Airport

Closest report is Jack Northrop Field Hawthorne Municipal Airport, 4.9 nm (9.2 km) WNW. Retrieved 2020/08/15 04:53 UTC (8 minutes ago):

KHHR 150453Z 23004KT 10SM CLR 22/17 A2984 RMK AO2 SLP103 T02220167

Closest aviation forecast (TAF) to Compton Woodley Airport

Closest forecast is Long Beach /Daugherty Field/ Airport, 6.3 nm (11.7 km) SE. Retrieved 2020-08-15 00:48 UTC (4 hours ago):

TAF KLGB 142345Z 1500/1524 29010KT P6SM FEW120 FM150600 VRB05KT P6SM SCT150 FM151700 19006KT P6SM SKC FM152200 29008KT P6SM SKC